sensor_id;sensor_type;location;lat;lon;timestamp;P1;durP1;ratioP1;P2;durP2;ratioP2
7707;SDS011;3896;48.758;8.888;2023-03-16T00:02:24;15.23;;;7.30;;
7707;SDS011;3896;48.758;8.888;2023-03-16T00:04:50;13.03;;;8.27;;
7707;SDS011;3896;48.758;8.888;2023-03-16T00:07:15;11.50;;;8.47;;
7707;SDS011;3896;48.758;8.888;2023-03-16T00:09:41;13.80;;;8.47;;
7707;SDS011;3896;48.758;8.888;2023-03-16T00:12:11;15.40;;;9.03;;
7707;SDS011;3896;48.758;8.888;2023-03-16T00:14:39;15.30;;;9.07;;
7707;SDS011;3896;48.758;8.888;2023-03-16T00:17:06;15.27;;;8.53;;
7707;SDS011;3896;48.758;8.888;2023-03-16T00:19:32;13.10;;;8.87;;
7707;SDS011;3896;48.758;8.888;2023-03-16T00:21:59;10.33;;;7.63;;
7707;SDS011;3896;48.758;8.888;2023-03-16T00:24:24;13.23;;;8.23;;
7707;SDS011;3896;48.758;8.888;2023-03-16T00:26:50;13.33;;;8.60;;
7707;SDS011;3896;48.758;8.888;2023-03-16T00:29:18;12.60;;;7.90;;
7707;SDS011;3896;48.758;8.888;2023-03-16T00:31:46;11.37;;;7.67;;
7707;SDS011;3896;48.758;8.888;2023-03-16T00:34:12;12.53;;;8.10;;
7707;SDS011;3896;48.758;8.888;2023-03-16T00:36:39;15.50;;;9.07;;
7707;SDS011;3896;48.758;8.888;2023-03-16T00:39:06;10.33;;;7.97;;
7707;SDS011;3896;48.758;8.888;2023-03-16T00:41:35;12.33;;;7.97;;
7707;SDS011;3896;48.758;8.888;2023-03-16T00:44:02;13.40;;;7.87;;
7707;SDS011;3896;48.758;8.888;2023-03-16T00:46:29;12.07;;;7.67;;
7707;SDS011;3896;48.758;8.888;2023-03-16T00:48:55;10.77;;;7.47;;
7707;SDS011;3896;48.758;8.888;2023-03-16T00:51:20;7.93;;;6.53;;
7707;SDS011;3896;48.758;8.888;2023-03-16T00:53:46;7.73;;;5.93;;
7707;SDS011;3896;48.758;8.888;2023-03-16T00:56:13;6.50;;;5.90;;
7707;SDS011;3896;48.758;8.888;2023-03-16T00:58:39;7.17;;;6.00;;
7707;SDS011;3896;48.758;8.888;2023-03-16T01:01:25;9.53;;;5.90;;
7707;SDS011;3896;48.758;8.888;2023-03-16T01:03:51;8.33;;;5.80;;
7707;SDS011;3896;48.758;8.888;2023-03-16T01:06:18;8.57;;;5.73;;
7707;SDS011;3896;48.758;8.888;2023-03-16T01:08:44;7.63;;;5.67;;
7707;SDS011;3896;48.758;8.888;2023-03-16T01:11:12;6.53;;;5.47;;
7707;SDS011;3896;48.758;8.888;2023-03-16T01:13:42;6.73;;;4.63;;
7707;SDS011;3896;48.758;8.888;2023-03-16T01:16:09;7.20;;;5.10;;
7707;SDS011;3896;48.758;8.888;2023-03-16T01:18:35;6.93;;;5.40;;
7707;SDS011;3896;48.758;8.888;2023-03-16T01:21:01;6.83;;;5.33;;
7707;SDS011;3896;48.758;8.888;2023-03-16T01:23:27;6.67;;;5.80;;
7707;SDS011;3896;48.758;8.888;2023-03-16T01:25:54;8.10;;;5.60;;
7707;SDS011;3896;48.758;8.888;2023-03-16T01:28:21;7.37;;;5.87;;
7707;SDS011;3896;48.758;8.888;2023-03-16T01:30:49;8.13;;;5.50;;
7707;SDS011;3896;48.758;8.888;2023-03-16T01:33:18;7.40;;;5.93;;
7707;SDS011;3896;48.758;8.888;2023-03-16T01:35:51;7.40;;;5.23;;
7707;SDS011;3896;48.758;8.888;2023-03-16T01:38:18;6.43;;;5.73;;
7707;SDS011;3896;48.758;8.888;2023-03-16T01:40:44;7.53;;;5.80;;
7707;SDS011;3896;48.758;8.888;2023-03-16T01:43:09;9.90;;;5.97;;
7707;SDS011;3896;48.758;8.888;2023-03-16T01:51:18;6.47;;;5.30;;
7707;SDS011;3896;48.758;8.888;2023-03-16T01:53:49;8.67;;;5.70;;
7707;SDS011;3896;48.758;8.888;2023-03-16T01:56:21;7.63;;;5.43;;
7707;SDS011;3896;48.758;8.888;2023-03-16T01:58:51;7.40;;;5.87;;
7707;SDS011;3896;48.758;8.888;2023-03-16T02:01:22;10.53;;;6.20;;
7707;SDS011;3896;48.758;8.888;2023-03-16T02:03:50;7.17;;;5.47;;
7707;SDS011;3896;48.758;8.888;2023-03-16T02:06:25;8.13;;;6.80;;
7707;SDS011;3896;48.758;8.888;2023-03-16T02:08:52;7.77;;;5.47;;
7707;SDS011;3896;48.758;8.888;2023-03-16T02:11:19;8.27;;;6.70;;
7707;SDS011;3896;48.758;8.888;2023-03-16T02:13:46;8.20;;;6.43;;
7707;SDS011;3896;48.758;8.888;2023-03-16T02:16:13;8.23;;;6.63;;
7707;SDS011;3896;48.758;8.888;2023-03-16T02:18:44;7.57;;;5.67;;
7707;SDS011;3896;48.758;8.888;2023-03-16T02:23:43;8.37;;;6.37;;
7707;SDS011;3896;48.758;8.888;2023-03-16T02:31:53;8.20;;;6.97;;
7707;SDS011;3896;48.758;8.888;2023-03-16T02:34:21;11.83;;;7.50;;
7707;SDS011;3896;48.758;8.888;2023-03-16T02:36:48;11.30;;;7.03;;
7707;SDS011;3896;48.758;8.888;2023-03-16T02:39:16;10.53;;;8.03;;
7707;SDS011;3896;48.758;8.888;2023-03-16T02:41:42;10.23;;;7.27;;
7707;SDS011;3896;48.758;8.888;2023-03-16T02:44:26;8.93;;;6.70;;
7707;SDS011;3896;48.758;8.888;2023-03-16T02:46:58;9.00;;;6.93;;
7707;SDS011;3896;48.758;8.888;2023-03-16T02:49:49;9.43;;;7.37;;
7707;SDS011;3896;48.758;8.888;2023-03-16T02:52:14;9.77;;;6.93;;
7707;SDS011;3896;48.758;8.888;2023-03-16T02:54:40;9.43;;;7.67;;
7707;SDS011;3896;48.758;8.888;2023-03-16T02:57:05;11.97;;;6.73;;
7707;SDS011;3896;48.758;8.888;2023-03-16T02:59:31;11.17;;;6.97;;
7707;SDS011;3896;48.758;8.888;2023-03-16T03:01:57;11.47;;;7.93;;
7707;SDS011;3896;48.758;8.888;2023-03-16T03:04:22;10.33;;;7.57;;
7707;SDS011;3896;48.758;8.888;2023-03-16T03:06:48;11.37;;;7.57;;
7707;SDS011;3896;48.758;8.888;2023-03-16T03:09:15;11.73;;;8.33;;
7707;SDS011;3896;48.758;8.888;2023-03-16T03:11:42;11.73;;;7.40;;
7707;SDS011;3896;48.758;8.888;2023-03-16T03:14:08;10.73;;;8.07;;
7707;SDS011;3896;48.758;8.888;2023-03-16T03:16:33;12.03;;;8.77;;
7707;SDS011;3896;48.758;8.888;2023-03-16T03:18:59;12.40;;;8.83;;
7707;SDS011;3896;48.758;8.888;2023-03-16T03:21:24;13.20;;;8.73;;
7707;SDS011;3896;48.758;8.888;2023-03-16T03:23:50;12.20;;;8.30;;
7707;SDS011;3896;48.758;8.888;2023-03-16T03:26:16;12.10;;;8.20;;
7707;SDS011;3896;48.758;8.888;2023-03-16T03:28:42;9.63;;;8.50;;
7707;SDS011;3896;48.758;8.888;2023-03-16T03:31:12;12.77;;;8.63;;
7707;SDS011;3896;48.758;8.888;2023-03-16T03:33:42;12.87;;;8.80;;
7707;SDS011;3896;48.758;8.888;2023-03-16T03:36:08;55.10;;;25.80;;
7707;SDS011;3896;48.758;8.888;2023-03-16T03:38:35;77.33;;;35.23;;
7707;SDS011;3896;48.758;8.888;2023-03-16T03:41:01;41.87;;;24.00;;
7707;SDS011;3896;48.758;8.888;2023-03-16T03:43:28;20.07;;;12.27;;
7707;SDS011;3896;48.758;8.888;2023-03-16T03:45:57;13.07;;;8.77;;
7707;SDS011;3896;48.758;8.888;2023-03-16T03:48:25;14.30;;;8.93;;
7707;SDS011;3896;48.758;8.888;2023-03-16T03:50:51;13.17;;;8.80;;
7707;SDS011;3896;48.758;8.888;2023-03-16T03:53:17;15.47;;;8.10;;
7707;SDS011;3896;48.758;8.888;2023-03-16T03:55:43;12.93;;;8.23;;
7707;SDS011;3896;48.758;8.888;2023-03-16T03:58:08;11.30;;;8.37;;
7707;SDS011;3896;48.758;8.888;2023-03-16T04:00:36;13.20;;;8.13;;
7707;SDS011;3896;48.758;8.888;2023-03-16T04:03:01;14.20;;;7.83;;
7707;SDS011;3896;48.758;8.888;2023-03-16T04:05:27;10.77;;;7.13;;
7707;SDS011;3896;48.758;8.888;2023-03-16T04:07:53;9.37;;;7.53;;
7707;SDS011;3896;48.758;8.888;2023-03-16T04:10:21;9.37;;;7.47;;
7707;SDS011;3896;48.758;8.888;2023-03-16T04:12:51;11.10;;;7.90;;
7707;SDS011;3896;48.758;8.888;2023-03-16T04:15:17;10.53;;;7.63;;
7707;SDS011;3896;48.758;8.888;2023-03-16T04:17:43;11.70;;;8.40;;
7707;SDS011;3896;48.758;8.888;2023-03-16T04:20:10;12.00;;;7.67;;
7707;SDS011;3896;48.758;8.888;2023-03-16T04:22:42;12.90;;;8.40;;
7707;SDS011;3896;48.758;8.888;2023-03-16T04:25:09;13.13;;;7.90;;
7707;SDS011;3896;48.758;8.888;2023-03-16T04:27:35;12.50;;;7.90;;
7707;SDS011;3896;48.758;8.888;2023-03-16T04:30:02;10.97;;;8.00;;
7707;SDS011;3896;48.758;8.888;2023-03-16T04:32:29;11.33;;;7.53;;
7707;SDS011;3896;48.758;8.888;2023-03-16T04:34:55;10.50;;;8.03;;
7707;SDS011;3896;48.758;8.888;2023-03-16T04:37:21;12.37;;;8.10;;
7707;SDS011;3896;48.758;8.888;2023-03-16T04:39:46;10.60;;;7.70;;
7707;SDS011;3896;48.758;8.888;2023-03-16T04:42:12;14.03;;;8.70;;
7707;SDS011;3896;48.758;8.888;2023-03-16T04:44:37;12.87;;;8.90;;
7707;SDS011;3896;48.758;8.888;2023-03-16T04:47:09;13.73;;;8.23;;
7707;SDS011;3896;48.758;8.888;2023-03-16T04:49:39;13.67;;;8.80;;
7707;SDS011;3896;48.758;8.888;2023-03-16T04:52:05;11.53;;;8.67;;
7707;SDS011;3896;48.758;8.888;2023-03-16T04:54:31;11.90;;;8.27;;
7707;SDS011;3896;48.758;8.888;2023-03-16T04:56:57;12.43;;;8.70;;
7707;SDS011;3896;48.758;8.888;2023-03-16T04:59:24;13.90;;;9.07;;
7707;SDS011;3896;48.758;8.888;2023-03-16T05:01:50;13.97;;;8.80;;
7707;SDS011;3896;48.758;8.888;2023-03-16T05:04:16;10.17;;;8.13;;
7707;SDS011;3896;48.758;8.888;2023-03-16T05:06:41;11.20;;;8.13;;
7707;SDS011;3896;48.758;8.888;2023-03-16T05:09:07;14.90;;;9.30;;
7707;SDS011;3896;48.758;8.888;2023-03-16T05:11:33;10.23;;;8.73;;
7707;SDS011;3896;48.758;8.888;2023-03-16T05:13:59;13.40;;;9.00;;
7707;SDS011;3896;48.758;8.888;2023-03-16T05:16:26;14.37;;;9.07;;
7707;SDS011;3896;48.758;8.888;2023-03-16T05:18:52;13.70;;;8.73;;
7707;SDS011;3896;48.758;8.888;2023-03-16T05:21:17;13.67;;;9.37;;
7707;SDS011;3896;48.758;8.888;2023-03-16T05:23:44;14.63;;;8.77;;
7707;SDS011;3896;48.758;8.888;2023-03-16T05:26:10;14.03;;;9.07;;
7707;SDS011;3896;48.758;8.888;2023-03-16T05:28:37;12.30;;;8.70;;
7707;SDS011;3896;48.758;8.888;2023-03-16T05:31:02;12.80;;;8.93;;
7707;SDS011;3896;48.758;8.888;2023-03-16T05:33:28;11.30;;;7.53;;
7707;SDS011;3896;48.758;8.888;2023-03-16T05:35:54;10.53;;;7.00;;
7707;SDS011;3896;48.758;8.888;2023-03-16T05:38:21;9.07;;;6.93;;
7707;SDS011;3896;48.758;8.888;2023-03-16T05:40:48;11.03;;;7.70;;
7707;SDS011;3896;48.758;8.888;2023-03-16T05:43:17;17.63;;;7.87;;
7707;SDS011;3896;48.758;8.888;2023-03-16T05:45:43;12.33;;;7.90;;
7707;SDS011;3896;48.758;8.888;2023-03-16T05:48:09;13.83;;;9.33;;
7707;SDS011;3896;48.758;8.888;2023-03-16T05:50:34;14.93;;;8.87;;
7707;SDS011;3896;48.758;8.888;2023-03-16T05:53:00;16.53;;;9.23;;
7707;SDS011;3896;48.758;8.888;2023-03-16T05:55:25;14.03;;;9.10;;
7707;SDS011;3896;48.758;8.888;2023-03-16T05:57:51;15.87;;;8.87;;
7707;SDS011;3896;48.758;8.888;2023-03-16T06:00:16;11.27;;;8.30;;
7707;SDS011;3896;48.758;8.888;2023-03-16T06:02:43;12.37;;;8.87;;
7707;SDS011;3896;48.758;8.888;2023-03-16T06:05:11;13.87;;;9.47;;
7707;SDS011;3896;48.758;8.888;2023-03-16T06:07:37;13.37;;;8.67;;
7707;SDS011;3896;48.758;8.888;2023-03-16T06:10:03;10.70;;;8.60;;
7707;SDS011;3896;48.758;8.888;2023-03-16T06:12:30;12.97;;;8.70;;
7707;SDS011;3896;48.758;8.888;2023-03-16T06:14:56;14.70;;;9.93;;
7707;SDS011;3896;48.758;8.888;2023-03-16T06:17:21;13.23;;;8.97;;
7707;SDS011;3896;48.758;8.888;2023-03-16T06:19:47;17.77;;;10.77;;
7707;SDS011;3896;48.758;8.888;2023-03-16T06:22:12;16.33;;;9.30;;
7707;SDS011;3896;48.758;8.888;2023-03-16T06:24:38;13.77;;;9.03;;
7707;SDS011;3896;48.758;8.888;2023-03-16T06:27:03;12.27;;;8.77;;
7707;SDS011;3896;48.758;8.888;2023-03-16T06:29:29;15.20;;;9.77;;
7707;SDS011;3896;48.758;8.888;2023-03-16T06:31:55;14.83;;;10.37;;
7707;SDS011;3896;48.758;8.888;2023-03-16T06:34:21;17.50;;;10.03;;
7707;SDS011;3896;48.758;8.888;2023-03-16T06:36:46;15.13;;;9.53;;
7707;SDS011;3896;48.758;8.888;2023-03-16T06:39:12;15.80;;;10.00;;
7707;SDS011;3896;48.758;8.888;2023-03-16T06:41:38;13.93;;;10.23;;
7707;SDS011;3896;48.758;8.888;2023-03-16T06:44:06;17.83;;;10.53;;
7707;SDS011;3896;48.758;8.888;2023-03-16T06:46:32;13.93;;;9.47;;
7707;SDS011;3896;48.758;8.888;2023-03-16T06:48:58;15.33;;;10.50;;
7707;SDS011;3896;48.758;8.888;2023-03-16T06:51:24;15.20;;;9.70;;
7707;SDS011;3896;48.758;8.888;2023-03-16T06:53:50;15.77;;;10.23;;
7707;SDS011;3896;48.758;8.888;2023-03-16T06:56:16;15.27;;;10.50;;
7707;SDS011;3896;48.758;8.888;2023-03-16T06:58:42;15.97;;;10.53;;
7707;SDS011;3896;48.758;8.888;2023-03-16T07:01:07;16.57;;;11.60;;
7707;SDS011;3896;48.758;8.888;2023-03-16T07:03:33;16.00;;;11.33;;
7707;SDS011;3896;48.758;8.888;2023-03-16T07:05:58;21.03;;;11.67;;
7707;SDS011;3896;48.758;8.888;2023-03-16T07:08:24;20.83;;;12.23;;
7707;SDS011;3896;48.758;8.888;2023-03-16T07:10:50;17.43;;;11.20;;
7707;SDS011;3896;48.758;8.888;2023-03-16T07:13:16;18.23;;;11.70;;
7707;SDS011;3896;48.758;8.888;2023-03-16T07:15:41;17.57;;;12.07;;
7707;SDS011;3896;48.758;8.888;2023-03-16T07:18:08;20.03;;;12.17;;
7707;SDS011;3896;48.758;8.888;2023-03-16T07:20:34;21.50;;;11.80;;
7707;SDS011;3896;48.758;8.888;2023-03-16T07:22:59;16.87;;;10.67;;
7707;SDS011;3896;48.758;8.888;2023-03-16T07:25:25;19.93;;;11.63;;
7707;SDS011;3896;48.758;8.888;2023-03-16T07:27:50;16.40;;;11.13;;
7707;SDS011;3896;48.758;8.888;2023-03-16T07:30:16;16.50;;;11.33;;
7707;SDS011;3896;48.758;8.888;2023-03-16T07:32:42;16.20;;;10.27;;
7707;SDS011;3896;48.758;8.888;2023-03-16T07:35:08;13.07;;;10.67;;
7707;SDS011;3896;48.758;8.888;2023-03-16T07:37:35;13.77;;;10.10;;
7707;SDS011;3896;48.758;8.888;2023-03-16T07:40:02;16.77;;;9.97;;
7707;SDS011;3896;48.758;8.888;2023-03-16T07:42:29;14.73;;;9.43;;
7707;SDS011;3896;48.758;8.888;2023-03-16T07:44:55;15.80;;;10.10;;
7707;SDS011;3896;48.758;8.888;2023-03-16T07:47:20;13.23;;;9.93;;
7707;SDS011;3896;48.758;8.888;2023-03-16T07:49:46;18.23;;;10.80;;
7707;SDS011;3896;48.758;8.888;2023-03-16T07:52:11;15.67;;;10.10;;
7707;SDS011;3896;48.758;8.888;2023-03-16T07:54:38;14.33;;;9.83;;
7707;SDS011;3896;48.758;8.888;2023-03-16T07:57:04;15.10;;;10.33;;
7707;SDS011;3896;48.758;8.888;2023-03-16T07:59:31;17.70;;;10.70;;
7707;SDS011;3896;48.758;8.888;2023-03-16T08:01:57;13.83;;;9.80;;
7707;SDS011;3896;48.758;8.888;2023-03-16T08:04:23;14.20;;;9.80;;
7707;SDS011;3896;48.758;8.888;2023-03-16T08:06:49;12.27;;;8.87;;
7707;SDS011;3896;48.758;8.888;2023-03-16T08:09:16;12.60;;;8.53;;
7707;SDS011;3896;48.758;8.888;2023-03-16T08:11:42;13.23;;;8.73;;
7707;SDS011;3896;48.758;8.888;2023-03-16T08:14:08;10.43;;;8.07;;
7707;SDS011;3896;48.758;8.888;2023-03-16T08:16:33;9.10;;;7.87;;
7707;SDS011;3896;48.758;8.888;2023-03-16T08:18:59;9.77;;;7.77;;
7707;SDS011;3896;48.758;8.888;2023-03-16T08:21:25;10.23;;;7.43;;
7707;SDS011;3896;48.758;8.888;2023-03-16T08:23:52;9.10;;;7.13;;
7707;SDS011;3896;48.758;8.888;2023-03-16T08:26:18;6.87;;;6.00;;
7707;SDS011;3896;48.758;8.888;2023-03-16T08:28:45;7.23;;;6.37;;
7707;SDS011;3896;48.758;8.888;2023-03-16T08:31:12;8.30;;;6.63;;
7707;SDS011;3896;48.758;8.888;2023-03-16T08:33:42;9.67;;;6.70;;
7707;SDS011;3896;48.758;8.888;2023-03-16T08:36:10;9.63;;;6.87;;
7707;SDS011;3896;48.758;8.888;2023-03-16T08:38:37;9.07;;;6.83;;
7707;SDS011;3896;48.758;8.888;2023-03-16T08:41:04;8.30;;;7.10;;
7707;SDS011;3896;48.758;8.888;2023-03-16T08:43:30;9.23;;;7.07;;
7707;SDS011;3896;48.758;8.888;2023-03-16T08:45:56;9.87;;;7.27;;
7707;SDS011;3896;48.758;8.888;2023-03-16T08:48:23;9.20;;;6.47;;
7707;SDS011;3896;48.758;8.888;2023-03-16T08:50:49;7.10;;;6.20;;
7707;SDS011;3896;48.758;8.888;2023-03-16T08:53:16;7.17;;;6.13;;
7707;SDS011;3896;48.758;8.888;2023-03-16T08:55:42;9.77;;;6.13;;
7707;SDS011;3896;48.758;8.888;2023-03-16T08:58:09;9.97;;;7.20;;
7707;SDS011;3896;48.758;8.888;2023-03-16T09:00:36;10.00;;;6.47;;
7707;SDS011;3896;48.758;8.888;2023-03-16T09:03:02;7.70;;;5.90;;
7707;SDS011;3896;48.758;8.888;2023-03-16T09:05:28;9.83;;;5.40;;
7707;SDS011;3896;48.758;8.888;2023-03-16T09:07:55;9.73;;;6.13;;
7707;SDS011;3896;48.758;8.888;2023-03-16T09:10:21;7.87;;;5.10;;
7707;SDS011;3896;48.758;8.888;2023-03-16T09:12:47;8.10;;;5.97;;
7707;SDS011;3896;48.758;8.888;2023-03-16T09:15:14;9.13;;;6.53;;
7707;SDS011;3896;48.758;8.888;2023-03-16T09:17:39;7.93;;;5.50;;
7707;SDS011;3896;48.758;8.888;2023-03-16T09:20:10;6.50;;;5.70;;
7707;SDS011;3896;48.758;8.888;2023-03-16T09:22:37;8.50;;;5.93;;
7707;SDS011;3896;48.758;8.888;2023-03-16T09:25:03;6.73;;;5.73;;
7707;SDS011;3896;48.758;8.888;2023-03-16T09:27:30;5.47;;;4.93;;
7707;SDS011;3896;48.758;8.888;2023-03-16T09:30:01;5.77;;;4.43;;
7707;SDS011;3896;48.758;8.888;2023-03-16T09:32:31;6.40;;;4.87;;
7707;SDS011;3896;48.758;8.888;2023-03-16T09:34:57;8.67;;;5.47;;
7707;SDS011;3896;48.758;8.888;2023-03-16T09:37:23;6.00;;;5.03;;
7707;SDS011;3896;48.758;8.888;2023-03-16T09:39:50;6.20;;;4.30;;
7707;SDS011;3896;48.758;8.888;2023-03-16T09:42:27;6.77;;;4.70;;
7707;SDS011;3896;48.758;8.888;2023-03-16T09:47:56;5.73;;;3.90;;
7707;SDS011;3896;48.758;8.888;2023-03-16T09:50:28;5.50;;;3.80;;
7707;SDS011;3896;48.758;8.888;2023-03-16T09:53:12;4.70;;;3.50;;
7707;SDS011;3896;48.758;8.888;2023-03-16T09:55:51;4.07;;;3.63;;
7707;SDS011;3896;48.758;8.888;2023-03-16T09:58:19;4.33;;;3.40;;
7707;SDS011;3896;48.758;8.888;2023-03-16T10:06:46;3.20;;;2.73;;
7707;SDS011;3896;48.758;8.888;2023-03-16T10:09:36;3.40;;;2.93;;
7707;SDS011;3896;48.758;8.888;2023-03-16T10:12:22;3.13;;;2.70;;
7707;SDS011;3896;48.758;8.888;2023-03-16T10:15:02;4.23;;;2.87;;
7707;SDS011;3896;48.758;8.888;2023-03-16T10:20:13;5.07;;;3.10;;
7707;SDS011;3896;48.758;8.888;2023-03-16T10:22:45;3.60;;;2.30;;
7707;SDS011;3896;48.758;8.888;2023-03-16T10:25:18;3.27;;;2.40;;
7707;SDS011;3896;48.758;8.888;2023-03-16T10:28:21;3.40;;;2.43;;
7707;SDS011;3896;48.758;8.888;2023-03-16T10:30:51;4.37;;;2.60;;
7707;SDS011;3896;48.758;8.888;2023-03-16T10:33:22;2.60;;;2.20;;
7707;SDS011;3896;48.758;8.888;2023-03-16T10:35:57;3.33;;;2.23;;
7707;SDS011;3896;48.758;8.888;2023-03-16T10:38:50;3.93;;;2.47;;
7707;SDS011;3896;48.758;8.888;2023-03-16T10:41:29;2.30;;;2.10;;
7707;SDS011;3896;48.758;8.888;2023-03-16T10:46:39;2.00;;;1.90;;
7707;SDS011;3896;48.758;8.888;2023-03-16T10:49:17;2.47;;;2.13;;
7707;SDS011;3896;48.758;8.888;2023-03-16T10:51:52;2.27;;;2.07;;
7707;SDS011;3896;48.758;8.888;2023-03-16T10:54:34;2.63;;;1.90;;
7707;SDS011;3896;48.758;8.888;2023-03-16T11:00:15;2.50;;;2.13;;
7707;SDS011;3896;48.758;8.888;2023-03-16T11:02:46;3.20;;;2.80;;
7707;SDS011;3896;48.758;8.888;2023-03-16T11:08:49;4.97;;;2.27;;
7707;SDS011;3896;48.758;8.888;2023-03-16T11:10:53;2.40;;;1.50;;
7707;SDS011;3896;48.758;8.888;2023-03-16T11:13:30;2.70;;;1.93;;
7707;SDS011;3896;48.758;8.888;2023-03-16T11:16:00;2.90;;;1.67;;
7707;SDS011;3896;48.758;8.888;2023-03-16T11:18:41;2.77;;;2.00;;
7707;SDS011;3896;48.758;8.888;2023-03-16T11:21:12;3.20;;;1.50;;
7707;SDS011;3896;48.758;8.888;2023-03-16T11:23:45;2.77;;;1.47;;
7707;SDS011;3896;48.758;8.888;2023-03-16T11:26:20;1.73;;;1.63;;
7707;SDS011;3896;48.758;8.888;2023-03-16T11:29:10;2.67;;;1.67;;
7707;SDS011;3896;48.758;8.888;2023-03-16T11:32:03;1.90;;;1.80;;
7707;SDS011;3896;48.758;8.888;2023-03-16T11:34:36;2.97;;;1.60;;
7707;SDS011;3896;48.758;8.888;2023-03-16T11:40:19;2.13;;;1.67;;
7707;SDS011;3896;48.758;8.888;2023-03-16T11:43:04;2.83;;;1.73;;
7707;SDS011;3896;48.758;8.888;2023-03-16T11:48:59;2.53;;;1.50;;
7707;SDS011;3896;48.758;8.888;2023-03-16T11:51:40;1.57;;;1.43;;
7707;SDS011;3896;48.758;8.888;2023-03-16T12:07:59;2.87;;;1.50;;
7707;SDS011;3896;48.758;8.888;2023-03-16T12:10:28;5.00;;;1.80;;
7707;SDS011;3896;48.758;8.888;2023-03-16T12:13:20;1.47;;;1.37;;
7707;SDS011;3896;48.758;8.888;2023-03-16T12:15:55;1.77;;;1.63;;
7707;SDS011;3896;48.758;8.888;2023-03-16T12:18:41;1.50;;;1.40;;
7707;SDS011;3896;48.758;8.888;2023-03-16T12:21:30;0.93;;;0.93;;
7707;SDS011;3896;48.758;8.888;2023-03-16T12:24:01;2.40;;;1.43;;
7707;SDS011;3896;48.758;8.888;2023-03-16T12:26:31;1.97;;;1.57;;
7707;SDS011;3896;48.758;8.888;2023-03-16T12:29:00;1.60;;;1.50;;
7707;SDS011;3896;48.758;8.888;2023-03-16T12:31:53;1.30;;;1.20;;
7707;SDS011;3896;48.758;8.888;2023-03-16T12:37:34;1.97;;;1.70;;
7707;SDS011;3896;48.758;8.888;2023-03-16T12:42:49;2.93;;;1.43;;
7707;SDS011;3896;48.758;8.888;2023-03-16T12:48:03;3.10;;;1.90;;
7707;SDS011;3896;48.758;8.888;2023-03-16T12:50:46;4.03;;;1.77;;
7707;SDS011;3896;48.758;8.888;2023-03-16T12:53:26;1.80;;;1.70;;
7707;SDS011;3896;48.758;8.888;2023-03-16T12:56:14;1.90;;;1.70;;
7707;SDS011;3896;48.758;8.888;2023-03-16T12:58:43;2.73;;;1.67;;
7707;SDS011;3896;48.758;8.888;2023-03-16T13:01:11;1.60;;;1.50;;
7707;SDS011;3896;48.758;8.888;2023-03-16T13:03:40;1.30;;;1.20;;
7707;SDS011;3896;48.758;8.888;2023-03-16T13:06:06;3.67;;;1.67;;
7707;SDS011;3896;48.758;8.888;2023-03-16T13:08:43;1.30;;;1.20;;
7707;SDS011;3896;48.758;8.888;2023-03-16T13:11:16;1.50;;;1.40;;
7707;SDS011;3896;48.758;8.888;2023-03-16T13:18:55;1.77;;;1.67;;
7707;SDS011;3896;48.758;8.888;2023-03-16T13:24:20;1.60;;;1.50;;
7707;SDS011;3896;48.758;8.888;2023-03-16T13:27:00;1.90;;;1.70;;
7707;SDS011;3896;48.758;8.888;2023-03-16T13:29:29;1.70;;;1.60;;
7707;SDS011;3896;48.758;8.888;2023-03-16T13:31:56;2.17;;;1.80;;
7707;SDS011;3896;48.758;8.888;2023-03-16T13:34:28;3.03;;;1.60;;
7707;SDS011;3896;48.758;8.888;2023-03-16T13:36:55;2.60;;;1.63;;
7707;SDS011;3896;48.758;8.888;2023-03-16T13:39:23;3.00;;;2.37;;
7707;SDS011;3896;48.758;8.888;2023-03-16T13:42:01;2.20;;;1.90;;
7707;SDS011;3896;48.758;8.888;2023-03-16T13:44:29;2.50;;;1.80;;
7707;SDS011;3896;48.758;8.888;2023-03-16T13:46:55;2.20;;;1.80;;
7707;SDS011;3896;48.758;8.888;2023-03-16T13:49:21;1.87;;;1.77;;
7707;SDS011;3896;48.758;8.888;2023-03-16T13:51:47;3.60;;;1.50;;
7707;SDS011;3896;48.758;8.888;2023-03-16T13:54:20;1.67;;;1.57;;
7707;SDS011;3896;48.758;8.888;2023-03-16T13:56:57;3.60;;;1.80;;
7707;SDS011;3896;48.758;8.888;2023-03-16T13:59:26;2.73;;;1.80;;
7707;SDS011;3896;48.758;8.888;2023-03-16T14:01:54;1.73;;;1.63;;
7707;SDS011;3896;48.758;8.888;2023-03-16T14:04:39;1.87;;;1.30;;
7707;SDS011;3896;48.758;8.888;2023-03-16T14:07:05;1.83;;;1.73;;
7707;SDS011;3896;48.758;8.888;2023-03-16T14:09:41;1.60;;;1.50;;
7707;SDS011;3896;48.758;8.888;2023-03-16T14:12:10;2.77;;;1.63;;
7707;SDS011;3896;48.758;8.888;2023-03-16T14:14:40;2.60;;;1.57;;
7707;SDS011;3896;48.758;8.888;2023-03-16T14:17:10;2.60;;;1.50;;
7707;SDS011;3896;48.758;8.888;2023-03-16T14:19:43;1.90;;;1.20;;
7707;SDS011;3896;48.758;8.888;2023-03-16T14:22:14;1.53;;;1.43;;
7707;SDS011;3896;48.758;8.888;2023-03-16T14:24:42;3.10;;;1.57;;
7707;SDS011;3896;48.758;8.888;2023-03-16T14:29:44;3.13;;;1.33;;
7707;SDS011;3896;48.758;8.888;2023-03-16T14:35:15;1.60;;;1.50;;
7707;SDS011;3896;48.758;8.888;2023-03-16T14:37:44;2.30;;;1.50;;
7707;SDS011;3896;48.758;8.888;2023-03-16T14:40:21;1.50;;;1.40;;
7707;SDS011;3896;48.758;8.888;2023-03-16T14:42:55;1.53;;;1.20;;
7707;SDS011;3896;48.758;8.888;2023-03-16T14:45:28;2.37;;;1.47;;
7707;SDS011;3896;48.758;8.888;2023-03-16T14:48:05;1.93;;;1.50;;
7707;SDS011;3896;48.758;8.888;2023-03-16T14:50:40;2.00;;;1.80;;
7707;SDS011;3896;48.758;8.888;2023-03-16T14:53:08;1.80;;;1.47;;
7707;SDS011;3896;48.758;8.888;2023-03-16T14:55:34;1.37;;;1.27;;
7707;SDS011;3896;48.758;8.888;2023-03-16T14:58:01;2.60;;;1.63;;
7707;SDS011;3896;48.758;8.888;2023-03-16T15:00:27;2.07;;;1.90;;
7707;SDS011;3896;48.758;8.888;2023-03-16T15:02:57;1.90;;;1.57;;
7707;SDS011;3896;48.758;8.888;2023-03-16T15:05:29;5.23;;;2.43;;
7707;SDS011;3896;48.758;8.888;2023-03-16T15:07:56;6.60;;;2.40;;
7707;SDS011;3896;48.758;8.888;2023-03-16T15:10:23;8.03;;;2.77;;
7707;SDS011;3896;48.758;8.888;2023-03-16T15:12:52;3.27;;;1.30;;
7707;SDS011;3896;48.758;8.888;2023-03-16T15:15:20;1.57;;;1.40;;
7707;SDS011;3896;48.758;8.888;2023-03-16T15:17:47;1.87;;;1.67;;
7707;SDS011;3896;48.758;8.888;2023-03-16T15:20:16;2.43;;;1.20;;
7707;SDS011;3896;48.758;8.888;2023-03-16T15:22:44;1.60;;;1.50;;
7707;SDS011;3896;48.758;8.888;2023-03-16T15:25:18;1.70;;;1.60;;
7707;SDS011;3896;48.758;8.888;2023-03-16T15:27:47;1.93;;;1.40;;
7707;SDS011;3896;48.758;8.888;2023-03-16T15:30:16;2.50;;;1.73;;
7707;SDS011;3896;48.758;8.888;2023-03-16T15:32:47;1.73;;;1.50;;
7707;SDS011;3896;48.758;8.888;2023-03-16T15:35:13;1.83;;;1.50;;
7707;SDS011;3896;48.758;8.888;2023-03-16T15:37:38;1.50;;;1.40;;
7707;SDS011;3896;48.758;8.888;2023-03-16T15:40:12;1.30;;;1.20;;
7707;SDS011;3896;48.758;8.888;2023-03-16T15:42:44;1.70;;;1.20;;
7707;SDS011;3896;48.758;8.888;2023-03-16T15:45:11;8.80;;;2.37;;
7707;SDS011;3896;48.758;8.888;2023-03-16T15:47:38;2.90;;;1.53;;
7707;SDS011;3896;48.758;8.888;2023-03-16T15:50:05;3.63;;;1.30;;
7707;SDS011;3896;48.758;8.888;2023-03-16T15:52:33;2.63;;;1.40;;
7707;SDS011;3896;48.758;8.888;2023-03-16T15:55:01;1.90;;;1.40;;
7707;SDS011;3896;48.758;8.888;2023-03-16T15:57:31;3.23;;;1.40;;
7707;SDS011;3896;48.758;8.888;2023-03-16T15:59:57;3.53;;;1.93;;
7707;SDS011;3896;48.758;8.888;2023-03-16T16:02:27;1.47;;;1.37;;
7707;SDS011;3896;48.758;8.888;2023-03-16T16:04:55;1.23;;;1.20;;
7707;SDS011;3896;48.758;8.888;2023-03-16T16:07:22;2.50;;;1.40;;
7707;SDS011;3896;48.758;8.888;2023-03-16T16:09:48;2.17;;;1.47;;
7707;SDS011;3896;48.758;8.888;2023-03-16T16:12:15;3.33;;;1.27;;
7707;SDS011;3896;48.758;8.888;2023-03-16T16:14:43;2.70;;;1.13;;
7707;SDS011;3896;48.758;8.888;2023-03-16T16:17:10;1.40;;;1.30;;
7707;SDS011;3896;48.758;8.888;2023-03-16T16:19:37;3.77;;;1.77;;
7707;SDS011;3896;48.758;8.888;2023-03-16T16:22:03;4.00;;;1.53;;
7707;SDS011;3896;48.758;8.888;2023-03-16T16:24:29;2.27;;;1.13;;
7707;SDS011;3896;48.758;8.888;2023-03-16T16:26:55;3.60;;;1.40;;
7707;SDS011;3896;48.758;8.888;2023-03-16T16:29:22;4.20;;;1.37;;
7707;SDS011;3896;48.758;8.888;2023-03-16T16:31:49;26.20;;;5.03;;
7707;SDS011;3896;48.758;8.888;2023-03-16T16:34:18;23.20;;;4.67;;
7707;SDS011;3896;48.758;8.888;2023-03-16T16:36:47;46.83;;;6.87;;